createdAt,value
2022-10-05T00:02:25.723Z,11.13
2022-10-05T00:04:59.971Z,9.68
2022-10-05T00:07:54.531Z,11.77
2022-10-05T00:10:22.414Z,11.45
2022-10-05T00:12:49.825Z,9.90
2022-10-05T00:15:22.008Z,11.18
2022-10-05T00:17:52.915Z,9.02
2022-10-05T00:20:37.122Z,10.60
2022-10-05T00:23:07.979Z,10.27
2022-10-05T00:25:35.322Z,12.50
2022-10-05T00:31:34.375Z,11.55
2022-10-05T00:34:03.253Z,11.80
2022-10-05T00:36:41.238Z,9.45
2022-10-05T00:39:09.010Z,10.85
2022-10-05T00:41:43.380Z,8.75
2022-10-05T00:44:41.772Z,10.75
2022-10-05T00:55:22.981Z,10.23
2022-10-05T00:58:45.913Z,9.68
2022-10-05T01:31:36.610Z,13.52
2022-10-05T01:35:24.717Z,9.68
2022-10-05T01:40:12.903Z,13.10
2022-10-05T01:50:00.888Z,13.40
2022-10-05T01:52:28.889Z,11.18
2022-10-05T01:55:10.636Z,12.48
2022-10-05T01:58:16.524Z,13.95
2022-10-05T02:01:42.711Z,10.00
2022-10-05T02:04:59.897Z,12.52
2022-10-05T02:14:56.541Z,12.45
2022-10-05T02:24:00.575Z,13.07
2022-10-05T02:26:32.719Z,11.95
2022-10-05T02:29:09.787Z,12.10
2022-10-05T02:31:47.963Z,9.48
2022-10-05T02:37:54.694Z,14.43
2022-10-05T02:47:34.531Z,11.15
2022-10-05T02:53:24.748Z,13.48
2022-10-05T02:56:56.340Z,9.13
2022-10-05T03:00:29.226Z,9.60
2022-10-05T03:09:01.644Z,11.00
2022-10-05T03:20:13.191Z,14.32
2022-10-05T03:47:44.273Z,13.70
2022-10-05T03:50:57.546Z,12.27
2022-10-05T03:57:12.973Z,14.05
2022-10-05T04:00:05.242Z,13.52
2022-10-05T04:11:05.315Z,13.65
2022-10-05T04:16:47.703Z,13.02
2022-10-05T04:19:25.327Z,12.80
2022-10-05T04:22:05.958Z,10.73
2022-10-05T04:29:43.647Z,14.55
2022-10-05T04:32:19.686Z,14.60
2022-10-05T04:41:49.965Z,15.77
2022-10-05T04:45:13.418Z,11.45
2022-10-05T04:48:35.572Z,12.27
2022-10-05T04:51:23.426Z,10.75
2022-10-05T04:54:33.071Z,11.60
2022-10-05T05:13:07.438Z,10.23
2022-10-05T05:16:17.961Z,12.45
2022-10-05T05:19:06.223Z,11.52
2022-10-05T05:22:22.925Z,9.13
2022-10-05T05:36:55.364Z,11.88
2022-10-05T05:39:33.184Z,13.40
2022-10-05T05:42:30.254Z,9.85
2022-10-05T05:46:58.370Z,11.63
2022-10-05T05:49:36.974Z,19.05
2022-10-05T06:08:26.949Z,14.63
2022-10-05T06:18:00.606Z,13.27
2022-10-05T06:20:44.684Z,10.85
2022-10-05T06:29:22.151Z,11.88
2022-10-05T06:35:12.191Z,10.57
2022-10-05T06:37:57.764Z,11.35
2022-10-05T06:41:10.254Z,11.57
2022-10-05T06:44:30.651Z,11.27
2022-10-05T07:00:25.366Z,10.00
2022-10-05T07:03:23.401Z,10.82
2022-10-05T07:06:02.547Z,10.25
2022-10-05T07:08:56.601Z,9.20
2022-10-05T07:11:32.547Z,9.80
2022-10-05T07:14:23.329Z,11.45
2022-10-05T07:17:11.232Z,10.00
2022-10-05T07:20:01.552Z,11.80
2022-10-05T07:22:33.481Z,12.98
2022-10-05T07:25:15.439Z,12.80
2022-10-05T07:27:55.132Z,10.27
2022-10-05T07:30:22.600Z,9.88
2022-10-05T07:33:06.254Z,12.13
2022-10-05T07:36:21.988Z,13.00
2022-10-05T07:39:01.182Z,10.25
2022-10-05T07:41:48.314Z,9.98
2022-10-05T07:44:25.909Z,10.57
2022-10-05T07:47:15.515Z,12.55
2022-10-05T07:50:11.322Z,12.68
2022-10-05T07:52:49.763Z,11.25
2022-10-05T07:55:22.580Z,13.48
2022-10-05T07:58:17.626Z,12.82
2022-10-05T08:00:58.866Z,10.75
2022-10-05T08:04:17.179Z,15.57
2022-10-05T08:06:47.968Z,12.27
2022-10-05T08:09:37.015Z,11.88
2022-10-05T08:12:41.490Z,11.20
2022-10-05T08:15:16.851Z,11.57
2022-10-05T08:18:03.040Z,10.90
2022-10-05T08:24:43.933Z,14.88
2022-10-05T08:27:23.497Z,12.40
2022-10-05T08:30:01.674Z,14.23
2022-10-05T08:32:43.427Z,12.52
2022-10-05T08:35:39.876Z,11.80
2022-10-05T08:38:18.135Z,13.82
2022-10-05T08:40:59.847Z,16.65
2022-10-05T08:44:04.702Z,12.82
2022-10-05T08:47:09.215Z,15.13
2022-10-05T08:50:13.559Z,14.45
2022-10-05T08:53:01.903Z,11.18
2022-10-05T08:55:40.675Z,12.25
2022-10-05T08:58:27.096Z,10.40
2022-10-05T09:01:04.645Z,11.20
2022-10-05T09:03:34.947Z,12.73
2022-10-05T09:06:33.580Z,14.25
2022-10-05T09:09:09.351Z,21.98
2022-10-05T09:11:39.061Z,12.80
2022-10-05T09:14:39.622Z,10.75
2022-10-05T09:17:37.080Z,11.23
2022-10-05T09:20:37.858Z,11.43
2022-10-05T09:23:40.658Z,12.27
2022-10-05T09:26:27.426Z,10.40
2022-10-05T09:29:28.020Z,9.50
2022-10-05T09:32:06.212Z,10.85
2022-10-05T09:34:59.719Z,11.45
2022-10-05T09:38:08.544Z,7.70
2022-10-05T09:41:34.536Z,9.25
2022-10-05T09:44:31.846Z,10.45
2022-10-05T09:47:29.785Z,8.35
2022-10-05T09:50:32.780Z,7.80
2022-10-05T09:53:13.237Z,8.75
2022-10-05T09:59:13.294Z,8.50
2022-10-05T10:02:07.858Z,9.32
2022-10-05T10:04:37.468Z,7.07
2022-10-05T10:07:21.163Z,10.70
2022-10-05T10:10:16.160Z,10.57
2022-10-05T10:12:42.830Z,7.40
2022-10-05T10:15:24.746Z,5.47
2022-10-05T10:18:19.530Z,5.68
2022-10-05T10:21:19.483Z,8.70
2022-10-05T10:24:00.371Z,8.05
2022-10-05T10:27:07.710Z,7.38
2022-10-05T10:29:55.307Z,7.47
2022-10-05T10:32:53.220Z,4.25
2022-10-05T10:35:34.301Z,7.43
2022-10-05T10:38:23.769Z,7.32
2022-10-05T10:41:29.075Z,6.80
2022-10-05T10:44:24.112Z,7.72
2022-10-05T10:47:38.697Z,4.85
2022-10-05T10:50:42.663Z,7.32
2022-10-05T10:53:31.333Z,4.60
2022-10-05T10:56:22.645Z,5.13
2022-10-05T10:58:59.079Z,6.30
2022-10-05T11:01:36.908Z,5.45
2022-10-05T11:04:16.034Z,5.93
2022-10-05T11:06:46.372Z,5.72
2022-10-05T11:09:28.913Z,3.92
2022-10-05T11:12:01.767Z,5.60
2022-10-05T11:14:54.617Z,5.35
2022-10-05T11:17:52.944Z,5.60
2022-10-05T11:20:47.100Z,6.80
2022-10-05T11:23:29.731Z,3.88
2022-10-05T11:26:19.159Z,3.58
2022-10-05T11:29:11.577Z,4.82
2022-10-05T11:32:10.119Z,3.15
2022-10-05T11:34:42.934Z,3.70
2022-10-05T11:37:32.149Z,2.30
2022-10-05T11:40:28.761Z,3.85
2022-10-05T11:43:49.830Z,4.95
2022-10-05T11:46:18.069Z,4.10
2022-10-05T11:49:23.483Z,2.65
2022-10-05T11:52:08.942Z,2.38
2022-10-05T11:55:11.377Z,4.05
2022-10-05T11:57:56.358Z,4.20
2022-10-05T12:00:32.770Z,2.40
2022-10-05T12:03:15.468Z,2.47
2022-10-05T12:06:21.958Z,4.97
2022-10-05T12:09:06.970Z,3.13
2022-10-05T12:11:42.958Z,2.28
2022-10-05T12:14:44.556Z,3.10
2022-10-05T12:17:32.353Z,3.88
2022-10-05T12:20:06.920Z,1.75
2022-10-05T12:22:50.721Z,3.25
2022-10-05T12:25:38.646Z,3.40
2022-10-05T12:28:12.159Z,4.35
2022-10-05T12:30:58.131Z,3.08
2022-10-05T12:33:28.375Z,4.00
2022-10-05T12:36:07.957Z,3.30
2022-10-05T12:38:57.876Z,2.40
2022-10-05T12:42:04.138Z,3.25
2022-10-05T12:44:52.154Z,4.90
2022-10-05T12:47:49.230Z,3.00
2022-10-05T12:50:24.243Z,5.97
2022-10-05T12:53:00.704Z,4.38
2022-10-05T12:55:48.932Z,4.70
2022-10-05T12:58:48.169Z,4.22
2022-10-05T13:01:38.279Z,4.63
2022-10-05T13:04:20.088Z,3.53
2022-10-05T13:06:52.783Z,3.58
2022-10-05T13:09:33.429Z,2.05
2022-10-05T13:12:28.564Z,2.63
2022-10-05T13:15:10.611Z,1.92
2022-10-05T13:18:18.781Z,2.58
2022-10-05T13:20:59.264Z,5.03
2022-10-05T13:23:44.834Z,1.60
2022-10-05T13:26:17.579Z,2.45
2022-10-05T13:28:52.818Z,3.90
2022-10-05T13:31:26.852Z,5.07
2022-10-05T13:34:18.334Z,3.20
2022-10-05T13:37:05.848Z,2.35
2022-10-05T13:39:42.114Z,3.00
2022-10-05T13:42:20.196Z,2.83
2022-10-05T13:45:28.942Z,3.45
2022-10-05T13:48:16.389Z,2.45
2022-10-05T13:51:10.974Z,3.45
2022-10-05T13:54:04.750Z,3.97
2022-10-05T13:56:42.592Z,4.05
2022-10-05T13:59:35.314Z,2.85
2022-10-05T14:02:08.581Z,2.33
2022-10-05T14:04:44.384Z,4.45
2022-10-05T14:07:21.710Z,4.53
2022-10-05T14:09:49.934Z,4.65
2022-10-05T14:12:22.365Z,5.40
2022-10-05T14:14:57.874Z,2.60
2022-10-05T14:17:33.490Z,2.97
2022-10-05T14:20:03.360Z,3.58
2022-10-05T14:22:30.258Z,3.00
2022-10-05T14:25:13.959Z,2.50
2022-10-05T14:28:24.100Z,2.60
2022-10-05T14:31:01.200Z,2.20
2022-10-05T14:33:33.854Z,2.15
2022-10-05T14:36:03.553Z,3.05
2022-10-05T14:38:49.979Z,3.38
2022-10-05T14:41:25.163Z,4.22
2022-10-05T14:50:16.088Z,3.80
2022-10-05T14:53:00.345Z,2.53
2022-10-05T14:55:37.272Z,2.13
2022-10-05T14:58:32.069Z,2.58
2022-10-05T15:01:19.688Z,3.72
2022-10-05T15:04:21.174Z,2.45
2022-10-05T15:07:04.197Z,4.13
2022-10-05T15:09:54.426Z,5.13
2022-10-05T15:12:38.285Z,2.90
2022-10-05T15:15:14.810Z,3.78
2022-10-05T15:17:59.398Z,2.08
2022-10-05T15:20:34.447Z,2.42
2022-10-05T15:26:00.811Z,2.47
2022-10-05T15:28:34.088Z,3.95
2022-10-05T15:31:09.451Z,3.05
2022-10-05T15:33:40.717Z,4.05
2022-10-05T15:36:51.970Z,5.05
2022-10-05T15:39:26.978Z,2.78
2022-10-05T15:44:48.977Z,3.17
2022-10-05T15:47:47.250Z,3.33
2022-10-05T15:50:26.503Z,4.20
2022-10-05T15:53:02.437Z,2.88
2022-10-05T15:55:55.575Z,3.22
2022-10-05T15:58:50.226Z,3.47
2022-10-05T16:01:32.084Z,4.20
2022-10-05T16:04:23.463Z,4.60
2022-10-05T16:07:14.698Z,4.38
2022-10-05T16:09:57.890Z,2.50
2022-10-05T16:12:46.699Z,3.45
2022-10-05T16:15:21.968Z,3.70
2022-10-05T16:20:36.679Z,3.42
2022-10-05T16:23:09.170Z,4.25
2022-10-05T16:25:58.367Z,4.15
2022-10-05T16:28:50.610Z,4.68
2022-10-05T16:31:38.187Z,3.78
2022-10-05T16:34:12.552Z,5.35
2022-10-05T16:36:54.366Z,4.67
2022-10-05T16:39:56.609Z,4.15
2022-10-05T16:42:25.724Z,3.35
2022-10-05T16:45:26.252Z,4.45
2022-10-05T16:48:19.679Z,6.38
2022-10-05T16:51:07.796Z,5.10
2022-10-05T16:53:41.580Z,6.55
2022-10-05T16:56:17.344Z,5.85
2022-10-05T16:58:52.946Z,3.83
2022-10-05T17:02:07.906Z,3.30
2022-10-05T17:04:41.082Z,3.90
2022-10-05T17:07:20.334Z,4.10
2022-10-05T17:10:14.211Z,5.20
2022-10-05T17:12:46.865Z,3.50
2022-10-05T17:15:31.555Z,3.33
2022-10-05T17:18:23.797Z,5.65
2022-10-05T17:20:56.722Z,4.20
2022-10-05T17:23:48.590Z,3.17
2022-10-05T17:26:45.046Z,3.92
2022-10-05T17:29:33.779Z,2.75
2022-10-05T17:32:10.677Z,4.35
2022-10-05T17:35:04.133Z,4.05
2022-10-05T17:37:38.110Z,6.82
2022-10-05T17:40:32.056Z,5.07
2022-10-05T17:43:01.322Z,3.80
2022-10-05T17:45:34.164Z,4.65
2022-10-05T17:48:04.072Z,6.07
2022-10-05T17:50:58.437Z,3.10
2022-10-05T17:54:05.754Z,9.00
2022-10-05T17:56:53.614Z,4.28
2022-10-05T17:59:55.634Z,6.13
2022-10-05T18:02:26.710Z,5.47
2022-10-05T18:05:16.189Z,8.05
2022-10-05T18:07:48.099Z,7.43
2022-10-05T18:10:29.069Z,8.07
2022-10-05T18:12:58.872Z,8.35
2022-10-05T18:15:25.576Z,5.05
2022-10-05T18:18:20.484Z,8.65
2022-10-05T18:21:13.638Z,6.88
2022-10-05T18:23:59.247Z,6.53
2022-10-05T18:26:41.630Z,8.23
2022-10-05T18:29:40.313Z,6.50
2022-10-05T18:32:28.052Z,8.65
2022-10-05T18:35:13.115Z,5.78
2022-10-05T18:38:04.220Z,5.18
2022-10-05T18:40:48.410Z,6.05
2022-10-05T18:43:52.817Z,6.40
2022-10-05T18:46:45.515Z,5.93
2022-10-05T18:49:27.525Z,5.38
2022-10-05T18:52:05.678Z,3.65
2022-10-05T18:55:10.053Z,8.32
2022-10-05T18:58:11.213Z,4.95
2022-10-05T19:00:43.809Z,10.15
2022-10-05T19:03:28.104Z,6.10
2022-10-05T19:05:59.839Z,5.57
2022-10-05T19:08:32.839Z,6.10
2022-10-05T19:11:23.185Z,5.78
2022-10-05T19:14:24.749Z,5.72
2022-10-05T19:17:14.312Z,5.05
2022-10-05T19:19:43.987Z,4.80
2022-10-05T19:22:34.472Z,4.63
2022-10-05T19:25:09.952Z,5.00
2022-10-05T19:27:45.737Z,4.88
2022-10-05T19:30:23.570Z,6.65
2022-10-05T19:33:09.028Z,4.97
2022-10-05T19:36:10.700Z,5.25
2022-10-05T19:38:55.561Z,6.97
2022-10-05T19:41:29.358Z,9.85
2022-10-05T19:44:02.295Z,4.82
2022-10-05T19:46:40.609Z,6.03
2022-10-05T19:49:10.762Z,5.25
2022-10-05T19:51:49.809Z,4.40
2022-10-05T19:54:31.097Z,6.50
2022-10-05T19:57:05.821Z,5.20
2022-10-05T19:59:37.223Z,6.55
2022-10-05T20:02:04.575Z,6.20
2022-10-05T20:04:43.084Z,3.72
2022-10-05T20:07:23.295Z,6.32
2022-10-05T20:09:50.250Z,4.38
2022-10-05T20:12:21.372Z,4.57
2022-10-05T20:15:30.112Z,4.57
2022-10-05T20:18:32.517Z,4.50
2022-10-05T20:21:00.652Z,5.45
2022-10-05T20:23:30.385Z,4.43
2022-10-05T20:26:20.133Z,6.30
2022-10-05T20:28:50.357Z,2.97
2022-10-05T20:31:20.033Z,5.32
2022-10-05T20:33:49.065Z,3.58
2022-10-05T20:36:15.886Z,3.22
2022-10-05T20:38:42.979Z,3.38
2022-10-05T20:41:09.819Z,6.95
2022-10-05T20:43:40.762Z,4.25
2022-10-05T20:46:07.688Z,5.10
2022-10-05T20:48:37.320Z,12.55
2022-10-05T20:51:04.340Z,4.25
2022-10-05T20:53:31.140Z,5.38
2022-10-05T20:56:05.602Z,5.88
2022-10-05T20:58:32.282Z,5.00
2022-10-05T21:01:18.436Z,5.15
2022-10-05T21:03:49.613Z,4.10
2022-10-05T21:06:26.406Z,4.60
2022-10-05T21:08:53.086Z,5.90
2022-10-05T21:11:20.550Z,4.63
2022-10-05T21:13:47.422Z,5.53
2022-10-05T21:16:18.241Z,6.40
2022-10-05T21:18:47.848Z,4.18
2022-10-05T21:21:17.205Z,5.03
2022-10-05T21:23:45.223Z,2.97
2022-10-05T21:26:12.669Z,4.00
2022-10-05T21:28:40.374Z,4.90
2022-10-05T21:31:10.026Z,6.32
2022-10-05T21:33:36.888Z,3.28
2022-10-05T21:36:03.940Z,5.03
2022-10-05T21:38:32.937Z,4.28
2022-10-05T21:40:59.794Z,4.15
2022-10-05T21:43:26.981Z,9.73
2022-10-05T21:45:55.470Z,4.32
2022-10-05T21:48:23.296Z,4.55
2022-10-05T21:50:52.930Z,11.23
2022-10-05T21:53:24.507Z,4.65
2022-10-05T21:55:51.924Z,4.30
2022-10-05T21:58:20.581Z,5.00
2022-10-05T22:00:47.368Z,8.10
2022-10-05T22:03:16.723Z,4.13
2022-10-05T22:05:43.593Z,5.30
2022-10-05T22:08:31.405Z,6.95
2022-10-05T22:11:00.715Z,7.53
2022-10-05T22:13:39.349Z,6.25
2022-10-05T22:16:06.244Z,4.68
2022-10-05T22:18:33.002Z,7.82
2022-10-05T22:21:02.173Z,6.22
2022-10-05T22:23:28.885Z,5.53
2022-10-05T22:25:57.951Z,3.35
2022-10-05T22:28:30.820Z,4.28
2022-10-05T22:30:59.765Z,4.22
2022-10-05T22:33:26.474Z,2.05
2022-10-05T22:35:54.342Z,2.75
2022-10-05T22:38:21.119Z,3.10
2022-10-05T22:40:47.787Z,3.78
2022-10-05T22:43:14.438Z,4.30
2022-10-05T22:45:43.392Z,3.08
2022-10-05T22:48:10.212Z,4.32
2022-10-05T22:50:39.464Z,4.47
2022-10-05T22:53:06.332Z,4.55
2022-10-05T22:55:35.378Z,5.85
2022-10-05T22:58:02.084Z,4.80
2022-10-05T23:00:53.265Z,4.28
2022-10-05T23:03:16.098Z,4.65
2022-10-05T23:05:45.236Z,4.30
2022-10-05T23:08:11.998Z,6.40
2022-10-05T23:10:38.719Z,3.72
2022-10-05T23:13:06.259Z,4.82
2022-10-05T23:15:34.264Z,5.22
2022-10-05T23:18:01.011Z,4.78
2022-10-05T23:20:27.727Z,6.22
2022-10-05T23:22:58.688Z,5.45
2022-10-05T23:25:25.637Z,4.90
2022-10-05T23:27:52.298Z,4.45
2022-10-05T23:30:19.123Z,5.43
2022-10-05T23:32:45.846Z,6.03
2022-10-05T23:35:13.715Z,4.40
2022-10-05T23:37:42.448Z,2.85
2022-10-05T23:40:14.136Z,3.42
2022-10-05T23:42:43.390Z,1.20
2022-10-05T23:45:11.444Z,3.17
2022-10-05T23:47:38.930Z,1.70
2022-10-05T23:50:07.011Z,2.45
2022-10-05T23:52:37.712Z,5.78
2022-10-05T23:55:05.578Z,2.50
2022-10-05T23:57:32.628Z,4.00
